sensor_id;sensor_type;location;lat;lon;timestamp;temperature;humidity
64843;DHT22;51310;52.198;5.422;2023-02-28T00:00:32;1.10;99.90
64843;DHT22;51310;52.198;5.422;2023-02-28T00:03:00;1.10;99.90
64843;DHT22;51310;52.198;5.422;2023-02-28T00:05:27;1.20;99.90
64843;DHT22;51310;52.198;5.422;2023-02-28T00:07:53;1.20;99.90
64843;DHT22;51310;52.198;5.422;2023-02-28T00:10:24;1.20;99.90
64843;DHT22;51310;52.198;5.422;2023-02-28T00:12:53;1.20;99.90
64843;DHT22;51310;52.198;5.422;2023-02-28T00:15:23;1.20;99.90
64843;DHT22;51310;52.198;5.422;2023-02-28T00:17:49;1.30;99.90
64843;DHT22;51310;52.198;5.422;2023-02-28T00:20:16;1.30;99.90
64843;DHT22;51310;52.198;5.422;2023-02-28T00:22:44;1.30;99.90
64843;DHT22;51310;52.198;5.422;2023-02-28T00:25:14;1.40;99.90
64843;DHT22;51310;52.198;5.422;2023-02-28T00:27:42;1.30;99.90
64843;DHT22;51310;52.198;5.422;2023-02-28T00:30:11;1.30;99.90
64843;DHT22;51310;52.198;5.422;2023-02-28T00:32:39;1.30;99.90
64843;DHT22;51310;52.198;5.422;2023-02-28T00:35:06;1.20;99.90
64843;DHT22;51310;52.198;5.422;2023-02-28T00:37:33;1.30;99.90
64843;DHT22;51310;52.198;5.422;2023-02-28T00:39:58;1.30;99.90
64843;DHT22;51310;52.198;5.422;2023-02-28T00:42:24;1.30;99.90
64843;DHT22;51310;52.198;5.422;2023-02-28T00:44:50;1.30;99.90
64843;DHT22;51310;52.198;5.422;2023-02-28T00:47:16;1.30;99.90
64843;DHT22;51310;52.198;5.422;2023-02-28T00:49:42;1.40;99.90
64843;DHT22;51310;52.198;5.422;2023-02-28T00:52:08;1.40;99.90
64843;DHT22;51310;52.198;5.422;2023-02-28T00:54:34;1.40;99.90
64843;DHT22;51310;52.198;5.422;2023-02-28T00:57:00;1.40;99.90
64843;DHT22;51310;52.198;5.422;2023-02-28T00:59:30;1.40;99.90
64843;DHT22;51310;52.198;5.422;2023-02-28T01:01:55;1.40;99.90
64843;DHT22;51310;52.198;5.422;2023-02-28T01:04:21;1.40;99.90
64843;DHT22;51310;52.198;5.422;2023-02-28T01:06:47;1.40;99.90
64843;DHT22;51310;52.198;5.422;2023-02-28T01:09:13;1.40;99.90
64843;DHT22;51310;52.198;5.422;2023-02-28T01:11:39;1.40;99.90
64843;DHT22;51310;52.198;5.422;2023-02-28T01:14:07;1.40;99.90
64843;DHT22;51310;52.198;5.422;2023-02-28T01:16:33;1.40;99.90
64843;DHT22;51310;52.198;5.422;2023-02-28T01:18:59;1.50;99.90
64843;DHT22;51310;52.198;5.422;2023-02-28T01:21:25;1.40;99.90
64843;DHT22;51310;52.198;5.422;2023-02-28T01:23:51;1.40;99.90
64843;DHT22;51310;52.198;5.422;2023-02-28T01:26:21;1.50;99.90
64843;DHT22;51310;52.198;5.422;2023-02-28T01:28:49;1.50;99.90
64843;DHT22;51310;52.198;5.422;2023-02-28T01:31:16;1.50;99.90
64843;DHT22;51310;52.198;5.422;2023-02-28T01:33:42;1.50;99.90
64843;DHT22;51310;52.198;5.422;2023-02-28T01:38:37;1.50;99.90
64843;DHT22;51310;52.198;5.422;2023-02-28T01:41:04;1.50;99.90
64843;DHT22;51310;52.198;5.422;2023-02-28T01:46:09;1.50;99.90
64843;DHT22;51310;52.198;5.422;2023-02-28T01:48:48;1.50;99.90
64843;DHT22;51310;52.198;5.422;2023-02-28T01:51:39;1.50;99.90
64843;DHT22;51310;52.198;5.422;2023-02-28T01:54:16;1.50;99.90
64843;DHT22;51310;52.198;5.422;2023-02-28T01:57:04;1.50;99.90
64843;DHT22;51310;52.198;5.422;2023-02-28T01:59:35;1.50;99.90
64843;DHT22;51310;52.198;5.422;2023-02-28T02:02:06;1.50;99.90
64843;DHT22;51310;52.198;5.422;2023-02-28T02:04:37;1.50;99.90
64843;DHT22;51310;52.198;5.422;2023-02-28T02:07:12;1.50;99.90
64843;DHT22;51310;52.198;5.422;2023-02-28T02:09:39;1.60;99.90
64843;DHT22;51310;52.198;5.422;2023-02-28T02:15:16;1.60;99.90
64843;DHT22;51310;52.198;5.422;2023-02-28T02:17:55;1.60;99.90
64843;DHT22;51310;52.198;5.422;2023-02-28T02:23:23;1.60;99.90
64843;DHT22;51310;52.198;5.422;2023-02-28T02:26:42;1.60;99.90
64843;DHT22;51310;52.198;5.422;2023-02-28T02:29:55;1.60;99.90
64843;DHT22;51310;52.198;5.422;2023-02-28T02:32:42;1.60;99.90
64843;DHT22;51310;52.198;5.422;2023-02-28T02:35:54;1.60;99.90
64843;DHT22;51310;52.198;5.422;2023-02-28T02:38:34;1.60;99.90
64843;DHT22;51310;52.198;5.422;2023-02-28T02:46:51;1.60;99.90
64843;DHT22;51310;52.198;5.422;2023-02-28T02:49:33;1.60;99.90
64843;DHT22;51310;52.198;5.422;2023-02-28T02:52:04;1.60;99.90
64843;DHT22;51310;52.198;5.422;2023-02-28T02:54:40;1.60;99.90
64843;DHT22;51310;52.198;5.422;2023-02-28T02:57:16;1.60;99.90
64843;DHT22;51310;52.198;5.422;2023-02-28T02:59:51;1.60;99.90
64843;DHT22;51310;52.198;5.422;2023-02-28T03:02:21;1.60;99.90
64843;DHT22;51310;52.198;5.422;2023-02-28T03:04:53;1.60;99.90
64843;DHT22;51310;52.198;5.422;2023-02-28T03:07:26;1.60;99.90
64843;DHT22;51310;52.198;5.422;2023-02-28T03:09:54;1.70;99.90
64843;DHT22;51310;52.198;5.422;2023-02-28T03:12:23;1.70;99.90
64843;DHT22;51310;52.198;5.422;2023-02-28T03:15:19;1.70;99.90
64843;DHT22;51310;52.198;5.422;2023-02-28T03:18:03;1.70;99.90
64843;DHT22;51310;52.198;5.422;2023-02-28T03:26:26;1.80;99.90
64843;DHT22;51310;52.198;5.422;2023-02-28T03:29:04;1.80;99.90
64843;DHT22;51310;52.198;5.422;2023-02-28T03:31:54;1.80;99.90
64843;DHT22;51310;52.198;5.422;2023-02-28T03:34:39;1.80;99.90
64843;DHT22;51310;52.198;5.422;2023-02-28T03:37:16;1.80;99.90
64843;DHT22;51310;52.198;5.422;2023-02-28T03:40:01;1.80;99.90
64843;DHT22;51310;52.198;5.422;2023-02-28T03:42:36;1.80;99.90
64843;DHT22;51310;52.198;5.422;2023-02-28T03:45:08;1.90;99.90
64843;DHT22;51310;52.198;5.422;2023-02-28T03:50:25;1.80;99.90
64843;DHT22;51310;52.198;5.422;2023-02-28T03:55:34;1.80;99.90
64843;DHT22;51310;52.198;5.422;2023-02-28T04:01:03;1.80;99.90
64843;DHT22;51310;52.198;5.422;2023-02-28T04:03:36;1.80;99.90
64843;DHT22;51310;52.198;5.422;2023-02-28T04:06:04;1.80;99.90
64843;DHT22;51310;52.198;5.422;2023-02-28T04:08:33;1.90;99.90
64843;DHT22;51310;52.198;5.422;2023-02-28T04:11:24;1.80;99.90
64843;DHT22;51310;52.198;5.422;2023-02-28T04:13:57;1.80;99.90
64843;DHT22;51310;52.198;5.422;2023-02-28T04:16:23;1.80;99.90
64843;DHT22;51310;52.198;5.422;2023-02-28T04:18:49;1.80;99.90
64843;DHT22;51310;52.198;5.422;2023-02-28T04:21:15;1.80;99.90
64843;DHT22;51310;52.198;5.422;2023-02-28T04:23:40;1.80;99.90
64843;DHT22;51310;52.198;5.422;2023-02-28T04:26:06;1.80;99.90
64843;DHT22;51310;52.198;5.422;2023-02-28T04:28:33;1.80;99.90
64843;DHT22;51310;52.198;5.422;2023-02-28T04:31:02;1.70;99.90
64843;DHT22;51310;52.198;5.422;2023-02-28T04:33:30;1.70;99.90
64843;DHT22;51310;52.198;5.422;2023-02-28T04:36:05;1.70;99.90
64843;DHT22;51310;52.198;5.422;2023-02-28T04:38:35;1.70;99.90
64843;DHT22;51310;52.198;5.422;2023-02-28T04:41:02;1.70;99.90
64843;DHT22;51310;52.198;5.422;2023-02-28T04:43:30;1.70;99.90
64843;DHT22;51310;52.198;5.422;2023-02-28T04:45:58;1.60;99.90
64843;DHT22;51310;52.198;5.422;2023-02-28T04:48:28;1.60;99.90
64843;DHT22;51310;52.198;5.422;2023-02-28T04:50:59;1.50;99.90
64843;DHT22;51310;52.198;5.422;2023-02-28T04:53:27;1.50;99.90
64843;DHT22;51310;52.198;5.422;2023-02-28T04:55:54;1.40;99.90
64843;DHT22;51310;52.198;5.422;2023-02-28T04:58:21;1.40;99.90
64843;DHT22;51310;52.198;5.422;2023-02-28T05:00:49;1.40;99.90
64843;DHT22;51310;52.198;5.422;2023-02-28T05:03:15;1.40;99.90
64843;DHT22;51310;52.198;5.422;2023-02-28T05:05:41;1.40;99.90
64843;DHT22;51310;52.198;5.422;2023-02-28T05:08:07;1.40;99.90
64843;DHT22;51310;52.198;5.422;2023-02-28T05:10:32;1.40;99.90
64843;DHT22;51310;52.198;5.422;2023-02-28T05:12:59;1.30;99.90
64843;DHT22;51310;52.198;5.422;2023-02-28T05:15:24;1.30;99.90
64843;DHT22;51310;52.198;5.422;2023-02-28T05:17:50;1.20;99.90
64843;DHT22;51310;52.198;5.422;2023-02-28T05:20:16;1.20;99.90
64843;DHT22;51310;52.198;5.422;2023-02-28T05:22:42;1.20;99.90
64843;DHT22;51310;52.198;5.422;2023-02-28T05:25:20;1.10;99.90
64843;DHT22;51310;52.198;5.422;2023-02-28T05:27:49;1.00;99.90
64843;DHT22;51310;52.198;5.422;2023-02-28T05:30:16;1.00;99.90
64843;DHT22;51310;52.198;5.422;2023-02-28T05:32:42;0.90;99.90
64843;DHT22;51310;52.198;5.422;2023-02-28T05:35:09;0.80;99.90
64843;DHT22;51310;52.198;5.422;2023-02-28T05:37:37;0.80;99.90
64843;DHT22;51310;52.198;5.422;2023-02-28T05:40:05;0.80;99.90
64843;DHT22;51310;52.198;5.422;2023-02-28T05:42:32;0.70;99.90
64843;DHT22;51310;52.198;5.422;2023-02-28T05:44:58;0.60;99.90
64843;DHT22;51310;52.198;5.422;2023-02-28T05:47:24;0.60;99.90
64843;DHT22;51310;52.198;5.422;2023-02-28T05:49:50;0.50;99.90
64843;DHT22;51310;52.198;5.422;2023-02-28T05:52:16;0.50;99.90
64843;DHT22;51310;52.198;5.422;2023-02-28T05:54:42;0.50;99.90
64843;DHT22;51310;52.198;5.422;2023-02-28T05:57:08;0.50;99.90
64843;DHT22;51310;52.198;5.422;2023-02-28T05:59:33;0.50;99.90
64843;DHT22;51310;52.198;5.422;2023-02-28T06:01:59;0.50;99.90
64843;DHT22;51310;52.198;5.422;2023-02-28T06:04:25;0.50;99.90
64843;DHT22;51310;52.198;5.422;2023-02-28T06:06:50;0.50;99.90
64843;DHT22;51310;52.198;5.422;2023-02-28T06:09:17;0.50;99.90
64843;DHT22;51310;52.198;5.422;2023-02-28T06:11:44;0.50;99.90
64843;DHT22;51310;52.198;5.422;2023-02-28T06:14:16;0.50;99.90
64843;DHT22;51310;52.198;5.422;2023-02-28T06:16:44;0.50;99.90
64843;DHT22;51310;52.198;5.422;2023-02-28T06:19:10;0.50;99.90
64843;DHT22;51310;52.198;5.422;2023-02-28T06:21:36;0.50;99.90
64843;DHT22;51310;52.198;5.422;2023-02-28T06:24:03;0.50;99.90
64843;DHT22;51310;52.198;5.422;2023-02-28T06:26:29;0.50;99.90
64843;DHT22;51310;52.198;5.422;2023-02-28T06:28:55;0.50;99.90
64843;DHT22;51310;52.198;5.422;2023-02-28T06:31:22;0.40;99.90
64843;DHT22;51310;52.198;5.422;2023-02-28T06:33:48;0.40;99.90
64843;DHT22;51310;52.198;5.422;2023-02-28T06:36:16;0.40;99.90
64843;DHT22;51310;52.198;5.422;2023-02-28T06:38:43;0.30;99.90
64843;DHT22;51310;52.198;5.422;2023-02-28T06:41:10;0.30;99.90
64843;DHT22;51310;52.198;5.422;2023-02-28T06:43:41;0.30;99.90
64843;DHT22;51310;52.198;5.422;2023-02-28T06:46:10;0.30;99.90
64843;DHT22;51310;52.198;5.422;2023-02-28T06:48:38;0.40;99.90
64843;DHT22;51310;52.198;5.422;2023-02-28T06:51:12;0.40;99.90
64843;DHT22;51310;52.198;5.422;2023-02-28T06:53:40;0.50;99.90
64843;DHT22;51310;52.198;5.422;2023-02-28T06:56:08;0.50;99.90
64843;DHT22;51310;52.198;5.422;2023-02-28T06:58:37;0.60;99.90
64843;DHT22;51310;52.198;5.422;2023-02-28T07:01:05;0.60;99.90
64843;DHT22;51310;52.198;5.422;2023-02-28T07:03:31;0.60;99.90
64843;DHT22;51310;52.198;5.422;2023-02-28T07:05:57;0.50;99.90
64843;DHT22;51310;52.198;5.422;2023-02-28T07:08:24;0.50;99.90
64843;DHT22;51310;52.198;5.422;2023-02-28T07:10:53;0.50;99.90
64843;DHT22;51310;52.198;5.422;2023-02-28T07:13:20;0.50;99.90
64843;DHT22;51310;52.198;5.422;2023-02-28T07:15:56;0.50;99.90
64843;DHT22;51310;52.198;5.422;2023-02-28T07:18:23;0.50;99.90
64843;DHT22;51310;52.198;5.422;2023-02-28T07:20:49;0.60;99.90
64843;DHT22;51310;52.198;5.422;2023-02-28T07:23:15;0.60;99.90
64843;DHT22;51310;52.198;5.422;2023-02-28T07:25:41;0.60;99.90
64843;DHT22;51310;52.198;5.422;2023-02-28T07:28:07;0.60;99.90
64843;DHT22;51310;52.198;5.422;2023-02-28T07:30:32;0.60;99.90
64843;DHT22;51310;52.198;5.422;2023-02-28T07:32:58;0.60;99.90
64843;DHT22;51310;52.198;5.422;2023-02-28T07:35:24;0.60;99.90
64843;DHT22;51310;52.198;5.422;2023-02-28T07:37:49;0.60;99.90
64843;DHT22;51310;52.198;5.422;2023-02-28T07:40:15;0.60;99.90
64843;DHT22;51310;52.198;5.422;2023-02-28T07:42:43;0.60;99.90
64843;DHT22;51310;52.198;5.422;2023-02-28T07:45:10;0.60;99.90
64843;DHT22;51310;52.198;5.422;2023-02-28T07:47:41;0.60;99.90
64843;DHT22;51310;52.198;5.422;2023-02-28T07:50:09;0.60;99.90
64843;DHT22;51310;52.198;5.422;2023-02-28T07:52:37;0.60;99.90
64843;DHT22;51310;52.198;5.422;2023-02-28T07:55:05;0.60;99.90
64843;DHT22;51310;52.198;5.422;2023-02-28T07:57:32;0.50;99.90
64843;DHT22;51310;52.198;5.422;2023-02-28T07:59:58;0.60;99.90
64843;DHT22;51310;52.198;5.422;2023-02-28T08:02:24;0.60;99.90
64843;DHT22;51310;52.198;5.422;2023-02-28T08:04:50;0.60;99.90
64843;DHT22;51310;52.198;5.422;2023-02-28T08:07:17;0.60;99.90
64843;DHT22;51310;52.198;5.422;2023-02-28T08:09:44;0.60;99.90
64843;DHT22;51310;52.198;5.422;2023-02-28T08:12:11;0.60;99.90
64843;DHT22;51310;52.198;5.422;2023-02-28T08:14:37;0.60;99.90
64843;DHT22;51310;52.198;5.422;2023-02-28T08:17:04;0.70;99.90
64843;DHT22;51310;52.198;5.422;2023-02-28T08:19:30;0.80;99.90
64843;DHT22;51310;52.198;5.422;2023-02-28T08:21:56;0.80;99.90
64843;DHT22;51310;52.198;5.422;2023-02-28T08:24:21;0.90;99.90
64843;DHT22;51310;52.198;5.422;2023-02-28T08:26:48;1.00;99.90
64843;DHT22;51310;52.198;5.422;2023-02-28T08:29:14;1.00;99.90
64843;DHT22;51310;52.198;5.422;2023-02-28T08:31:40;1.10;99.90
64843;DHT22;51310;52.198;5.422;2023-02-28T08:34:11;1.20;99.90
64843;DHT22;51310;52.198;5.422;2023-02-28T08:36:40;1.30;99.90
64843;DHT22;51310;52.198;5.422;2023-02-28T08:39:07;1.40;99.90
64843;DHT22;51310;52.198;5.422;2023-02-28T08:41:33;1.40;99.90
64843;DHT22;51310;52.198;5.422;2023-02-28T08:43:59;1.50;99.90
64843;DHT22;51310;52.198;5.422;2023-02-28T08:46:25;1.50;99.90
64843;DHT22;51310;52.198;5.422;2023-02-28T08:48:56;1.60;99.90
64843;DHT22;51310;52.198;5.422;2023-02-28T08:51:26;1.60;99.90
64843;DHT22;51310;52.198;5.422;2023-02-28T08:53:57;1.70;99.90
64843;DHT22;51310;52.198;5.422;2023-02-28T08:56:26;1.80;99.90
64843;DHT22;51310;52.198;5.422;2023-02-28T08:58:55;1.90;99.90
64843;DHT22;51310;52.198;5.422;2023-02-28T09:01:26;1.90;99.90
64843;DHT22;51310;52.198;5.422;2023-02-28T09:03:54;2.00;99.90
64843;DHT22;51310;52.198;5.422;2023-02-28T09:06:23;2.00;99.90
64843;DHT22;51310;52.198;5.422;2023-02-28T09:08:50;2.10;99.90
64843;DHT22;51310;52.198;5.422;2023-02-28T09:11:17;2.10;99.90
64843;DHT22;51310;52.198;5.422;2023-02-28T09:13:44;2.10;99.90
64843;DHT22;51310;52.198;5.422;2023-02-28T09:16:13;2.10;99.90
64843;DHT22;51310;52.198;5.422;2023-02-28T09:18:42;2.10;99.90
64843;DHT22;51310;52.198;5.422;2023-02-28T09:21:12;2.20;99.90
64843;DHT22;51310;52.198;5.422;2023-02-28T09:23:44;2.30;99.90
64843;DHT22;51310;52.198;5.422;2023-02-28T09:26:23;2.30;99.90
64843;DHT22;51310;52.198;5.422;2023-02-28T09:28:51;2.50;99.90
64843;DHT22;51310;52.198;5.422;2023-02-28T09:31:26;2.60;99.90
64843;DHT22;51310;52.198;5.422;2023-02-28T09:33:56;2.80;99.90
64843;DHT22;51310;52.198;5.422;2023-02-28T09:36:23;3.10;99.90
64843;DHT22;51310;52.198;5.422;2023-02-28T09:38:51;3.30;99.90
64843;DHT22;51310;52.198;5.422;2023-02-28T09:41:42;3.50;99.90
64843;DHT22;51310;52.198;5.422;2023-02-28T09:44:39;3.60;99.90
64843;DHT22;51310;52.198;5.422;2023-02-28T09:49:57;3.70;99.90
64843;DHT22;51310;52.198;5.422;2023-02-28T09:52:42;3.60;59.90
64843;DHT22;51310;52.198;5.422;2023-02-28T09:55:42;3.60;59.30
64843;DHT22;51310;52.198;5.422;2023-02-28T10:04:05;3.70;52.70
64843;DHT22;51310;52.198;5.422;2023-02-28T10:06:46;3.60;54.00
64843;DHT22;51310;52.198;5.422;2023-02-28T10:09:26;3.60;52.20
64843;DHT22;51310;52.198;5.422;2023-02-28T10:12:01;3.70;52.20
64843;DHT22;51310;52.198;5.422;2023-02-28T10:14:34;3.70;53.20
64843;DHT22;51310;52.198;5.422;2023-02-28T10:17:13;3.90;52.40
64843;DHT22;51310;52.198;5.422;2023-02-28T10:20:02;4.00;52.90
64843;DHT22;51310;52.198;5.422;2023-02-28T10:22:59;4.10;51.30
64843;DHT22;51310;52.198;5.422;2023-02-28T10:25:35;4.20;51.80
64843;DHT22;51310;52.198;5.422;2023-02-28T10:28:20;4.30;51.00
64843;DHT22;51310;52.198;5.422;2023-02-28T10:30:51;4.30;50.00
64843;DHT22;51310;52.198;5.422;2023-02-28T10:35:53;4.40;51.60
64843;DHT22;51310;52.198;5.422;2023-02-28T10:38:23;4.50;50.50
64843;DHT22;51310;52.198;5.422;2023-02-28T10:40:51;4.50;51.60
64843;DHT22;51310;52.198;5.422;2023-02-28T10:43:28;4.50;50.40
64843;DHT22;51310;52.198;5.422;2023-02-28T10:46:03;4.40;50.60
64843;DHT22;51310;52.198;5.422;2023-02-28T10:51:12;4.40;49.60
64843;DHT22;51310;52.198;5.422;2023-02-28T10:53:49;4.40;49.50
64843;DHT22;51310;52.198;5.422;2023-02-28T10:56:21;4.40;48.70
64843;DHT22;51310;52.198;5.422;2023-02-28T10:59:22;4.20;49.20
64843;DHT22;51310;52.198;5.422;2023-02-28T11:01:53;4.20;49.90
64843;DHT22;51310;52.198;5.422;2023-02-28T11:06:56;4.10;50.20
64843;DHT22;51310;52.198;5.422;2023-02-28T11:09:37;4.10;50.10
64843;DHT22;51310;52.198;5.422;2023-02-28T11:12:08;4.20;49.10
64843;DHT22;51310;52.198;5.422;2023-02-28T11:15:05;4.20;49.90
64843;DHT22;51310;52.198;5.422;2023-02-28T11:18:01;4.20;49.40
64843;DHT22;51310;52.198;5.422;2023-02-28T11:20:33;4.30;49.00
64843;DHT22;51310;52.198;5.422;2023-02-28T11:23:01;4.20;49.10
64843;DHT22;51310;52.198;5.422;2023-02-28T11:25:32;4.30;49.10
64843;DHT22;51310;52.198;5.422;2023-02-28T11:28:02;4.20;48.60
64843;DHT22;51310;52.198;5.422;2023-02-28T11:33:44;4.40;48.50
64843;DHT22;51310;52.198;5.422;2023-02-28T11:38:47;4.40;47.80
64843;DHT22;51310;52.198;5.422;2023-02-28T11:44:12;4.40;47.80
64843;DHT22;51310;52.198;5.422;2023-02-28T11:46:54;4.40;48.20
64843;DHT22;51310;52.198;5.422;2023-02-28T11:49:56;4.40;47.90
64843;DHT22;51310;52.198;5.422;2023-02-28T11:52:52;4.50;48.00
64843;DHT22;51310;52.198;5.422;2023-02-28T11:55:42;4.50;46.70
64843;DHT22;51310;52.198;5.422;2023-02-28T11:58:27;4.50;47.80
64843;DHT22;51310;52.198;5.422;2023-02-28T12:01:19;4.50;46.90
64843;DHT22;51310;52.198;5.422;2023-02-28T12:04:03;4.50;46.90
64843;DHT22;51310;52.198;5.422;2023-02-28T12:13:02;4.70;46.80
64843;DHT22;51310;52.198;5.422;2023-02-28T12:15:57;4.70;46.00
64843;DHT22;51310;52.198;5.422;2023-02-28T12:19:53;4.70;45.40
64843;DHT22;51310;52.198;5.422;2023-02-28T12:22:22;4.70;45.40
64843;DHT22;51310;52.198;5.422;2023-02-28T12:28:29;4.70;45.30
64843;DHT22;51310;52.198;5.422;2023-02-28T12:33:55;4.70;44.90
64843;DHT22;51310;52.198;5.422;2023-02-28T12:36:27;4.70;46.10
64843;DHT22;51310;52.198;5.422;2023-02-28T12:42:00;4.90;45.60
64843;DHT22;51310;52.198;5.422;2023-02-28T12:44:35;4.90;45.40
64843;DHT22;51310;52.198;5.422;2023-02-28T12:47:15;5.00;45.30
64843;DHT22;51310;52.198;5.422;2023-02-28T12:49:53;5.00;44.50
64843;DHT22;51310;52.198;5.422;2023-02-28T12:55:15;5.10;45.40
64843;DHT22;51310;52.198;5.422;2023-02-28T12:58:31;5.10;45.30
64843;DHT22;51310;52.198;5.422;2023-02-28T13:09:59;5.20;43.00
64843;DHT22;51310;52.198;5.422;2023-02-28T13:12:27;5.20;42.90
64843;DHT22;51310;52.198;5.422;2023-02-28T13:17:56;5.00;44.10
64843;DHT22;51310;52.198;5.422;2023-02-28T13:20:26;5.10;44.40
64843;DHT22;51310;52.198;5.422;2023-02-28T13:23:02;5.10;44.10
64843;DHT22;51310;52.198;5.422;2023-02-28T13:28:08;5.10;42.70
64843;DHT22;51310;52.198;5.422;2023-02-28T13:33:35;5.10;42.90
64843;DHT22;51310;52.198;5.422;2023-02-28T13:38:51;5.10;43.30
64843;DHT22;51310;52.198;5.422;2023-02-28T13:44:09;5.20;43.30
64843;DHT22;51310;52.198;5.422;2023-02-28T14:05:43;5.30;43.00
64843;DHT22;51310;52.198;5.422;2023-02-28T14:08:16;5.30;42.50
64843;DHT22;51310;52.198;5.422;2023-02-28T14:10:48;5.30;42.20
64843;DHT22;51310;52.198;5.422;2023-02-28T14:13:45;5.30;43.00
64843;DHT22;51310;52.198;5.422;2023-02-28T14:16:14;5.30;43.60
64843;DHT22;51310;52.198;5.422;2023-02-28T14:18:51;5.50;42.40
64843;DHT22;51310;52.198;5.422;2023-02-28T14:21:34;5.40;42.40
64843;DHT22;51310;52.198;5.422;2023-02-28T14:24:25;5.30;42.20
64843;DHT22;51310;52.198;5.422;2023-02-28T14:27:26;5.30;43.00
64843;DHT22;51310;52.198;5.422;2023-02-28T14:38:55;5.30;43.20
64843;DHT22;51310;52.198;5.422;2023-02-28T14:41:34;5.30;43.50
64843;DHT22;51310;52.198;5.422;2023-02-28T14:44:15;5.30;42.50
64843;DHT22;51310;52.198;5.422;2023-02-28T14:46:48;5.40;42.90
64843;DHT22;51310;52.198;5.422;2023-02-28T14:49:30;5.40;42.60
64843;DHT22;51310;52.198;5.422;2023-02-28T14:52:15;5.40;42.70
64843;DHT22;51310;52.198;5.422;2023-02-28T14:54:44;5.30;43.10
64843;DHT22;51310;52.198;5.422;2023-02-28T14:57:32;5.30;42.80
64843;DHT22;51310;52.198;5.422;2023-02-28T15:00:14;5.30;42.80
64843;DHT22;51310;52.198;5.422;2023-02-28T15:02:40;5.30;42.90
64843;DHT22;51310;52.198;5.422;2023-02-28T15:07:38;5.30;42.70
64843;DHT22;51310;52.198;5.422;2023-02-28T15:10:17;5.30;43.10
64843;DHT22;51310;52.198;5.422;2023-02-28T15:12:52;5.30;42.50
64843;DHT22;51310;52.198;5.422;2023-02-28T15:15:56;5.30;42.00
64843;DHT22;51310;52.198;5.422;2023-02-28T15:21:25;5.30;42.70
64843;DHT22;51310;52.198;5.422;2023-02-28T15:24:17;5.30;43.00
64843;DHT22;51310;52.198;5.422;2023-02-28T15:26:58;5.30;43.20
64843;DHT22;51310;52.198;5.422;2023-02-28T15:29:27;5.30;43.70
64843;DHT22;51310;52.198;5.422;2023-02-28T15:31:58;5.30;43.70
64843;DHT22;51310;52.198;5.422;2023-02-28T15:34:39;5.30;42.90
64843;DHT22;51310;52.198;5.422;2023-02-28T15:40:50;5.30;44.10
64843;DHT22;51310;52.198;5.422;2023-02-28T15:43:15;5.30;43.30
64843;DHT22;51310;52.198;5.422;2023-02-28T15:45:51;5.30;42.70
64843;DHT22;51310;52.198;5.422;2023-02-28T15:48:32;5.30;43.00
64843;DHT22;51310;52.198;5.422;2023-02-28T15:54:14;5.20;42.90
64843;DHT22;51310;52.198;5.422;2023-02-28T15:56:49;5.10;43.00
64843;DHT22;51310;52.198;5.422;2023-02-28T15:59:22;5.10;43.60
64843;DHT22;51310;52.198;5.422;2023-02-28T16:04:36;5.00;44.40
64843;DHT22;51310;52.198;5.422;2023-02-28T16:07:11;5.00;44.70
64843;DHT22;51310;52.198;5.422;2023-02-28T16:09:38;5.00;44.80
64843;DHT22;51310;52.198;5.422;2023-02-28T16:12:03;5.00;44.00
64843;DHT22;51310;52.198;5.422;2023-02-28T16:14:31;4.90;44.90
64843;DHT22;51310;52.198;5.422;2023-02-28T16:17:03;4.90;44.20
64843;DHT22;51310;52.198;5.422;2023-02-28T16:19:31;4.90;44.20
64843;DHT22;51310;52.198;5.422;2023-02-28T16:21:57;4.90;44.70
64843;DHT22;51310;52.198;5.422;2023-02-28T16:24:23;4.90;44.70
64843;DHT22;51310;52.198;5.422;2023-02-28T16:26:51;4.80;45.00
64843;DHT22;51310;52.198;5.422;2023-02-28T16:29:33;4.70;44.90
64843;DHT22;51310;52.198;5.422;2023-02-28T16:32:04;4.70;45.40
64843;DHT22;51310;52.198;5.422;2023-02-28T16:34:31;4.70;46.10
64843;DHT22;51310;52.198;5.422;2023-02-28T16:36:57;4.70;45.70
64843;DHT22;51310;52.198;5.422;2023-02-28T16:39:24;4.70;45.80
64843;DHT22;51310;52.198;5.422;2023-02-28T16:41:50;4.60;46.10
64843;DHT22;51310;52.198;5.422;2023-02-28T16:44:33;4.50;46.60
64843;DHT22;51310;52.198;5.422;2023-02-28T16:47:01;4.40;46.80
64843;DHT22;51310;52.198;5.422;2023-02-28T16:49:28;4.40;47.00
64843;DHT22;51310;52.198;5.422;2023-02-28T16:51:54;4.30;47.80
64843;DHT22;51310;52.198;5.422;2023-02-28T16:54:20;4.30;47.50
64843;DHT22;51310;52.198;5.422;2023-02-28T16:56:47;4.30;47.90
64843;DHT22;51310;52.198;5.422;2023-02-28T16:59:17;4.20;48.00
64843;DHT22;51310;52.198;5.422;2023-02-28T17:01:46;4.10;48.60
64843;DHT22;51310;52.198;5.422;2023-02-28T17:04:12;4.00;49.10
64843;DHT22;51310;52.198;5.422;2023-02-28T17:06:39;3.90;49.40
64843;DHT22;51310;52.198;5.422;2023-02-28T17:09:05;3.80;50.00
64843;DHT22;51310;52.198;5.422;2023-02-28T17:11:33;3.60;50.50
64843;DHT22;51310;52.198;5.422;2023-02-28T17:13:59;3.50;51.50
64843;DHT22;51310;52.198;5.422;2023-02-28T17:16:30;3.30;52.20
64843;DHT22;51310;52.198;5.422;2023-02-28T17:19:01;3.30;53.20
64843;DHT22;51310;52.198;5.422;2023-02-28T17:21:30;3.10;54.70
64843;DHT22;51310;52.198;5.422;2023-02-28T17:23:56;3.10;55.50
64843;DHT22;51310;52.198;5.422;2023-02-28T17:26:23;3.10;55.80
64843;DHT22;51310;52.198;5.422;2023-02-28T17:28:53;3.10;55.90
64843;DHT22;51310;52.198;5.422;2023-02-28T17:31:24;3.10;56.00
64843;DHT22;51310;52.198;5.422;2023-02-28T17:33:51;3.10;56.20
64843;DHT22;51310;52.198;5.422;2023-02-28T17:36:23;3.10;56.40
64843;DHT22;51310;52.198;5.422;2023-02-28T17:38:52;3.00;56.60
64843;DHT22;51310;52.198;5.422;2023-02-28T17:41:20;3.00;56.80
64843;DHT22;51310;52.198;5.422;2023-02-28T17:43:46;3.00;56.70
64843;DHT22;51310;52.198;5.422;2023-02-28T17:46:20;2.90;57.50
64843;DHT22;51310;52.198;5.422;2023-02-28T17:48:49;3.00;57.10
64843;DHT22;51310;52.198;5.422;2023-02-28T17:51:17;3.00;56.90
64843;DHT22;51310;52.198;5.422;2023-02-28T17:53:45;2.90;57.20
64843;DHT22;51310;52.198;5.422;2023-02-28T17:56:22;2.80;57.50
64843;DHT22;51310;52.198;5.422;2023-02-28T17:58:51;2.80;57.60
64843;DHT22;51310;52.198;5.422;2023-02-28T18:01:20;2.70;58.30
64843;DHT22;51310;52.198;5.422;2023-02-28T18:03:47;2.70;58.60
64843;DHT22;51310;52.198;5.422;2023-02-28T18:08:53;2.70;59.10
64843;DHT22;51310;52.198;5.422;2023-02-28T18:11:21;2.60;59.00
64843;DHT22;51310;52.198;5.422;2023-02-28T18:13:50;2.50;59.20
64843;DHT22;51310;52.198;5.422;2023-02-28T18:16:18;2.50;59.80
64843;DHT22;51310;52.198;5.422;2023-02-28T18:18:46;2.40;60.10
64843;DHT22;51310;52.198;5.422;2023-02-28T18:21:14;2.40;60.30
64843;DHT22;51310;52.198;5.422;2023-02-28T18:23:41;2.40;60.10
64843;DHT22;51310;52.198;5.422;2023-02-28T18:26:17;2.30;61.10
64843;DHT22;51310;52.198;5.422;2023-02-28T18:28:44;2.20;61.10
64843;DHT22;51310;52.198;5.422;2023-02-28T18:31:12;2.10;61.40
64843;DHT22;51310;52.198;5.422;2023-02-28T18:33:41;2.10;61.80
64843;DHT22;51310;52.198;5.422;2023-02-28T18:36:07;1.90;62.10
64843;DHT22;51310;52.198;5.422;2023-02-28T18:38:34;1.90;62.50